createdAt,value
2017-01-26T00:00:22.690Z,72
2017-01-26T00:01:23.500Z,72
2017-01-26T00:02:24.307Z,72
2017-01-26T00:03:25.100Z,72
2017-01-26T00:04:25.477Z,72
2017-01-26T00:05:26.309Z,84
2017-01-26T00:06:27.122Z,84
2017-01-26T00:07:27.933Z,84
2017-01-26T00:08:28.728Z,84
2017-01-26T00:09:29.949Z,84
2017-01-26T00:10:30.325Z,84
2017-01-26T00:11:31.561Z,84
2017-01-26T00:12:32.371Z,84
2017-01-26T00:13:32.751Z,84
2017-01-26T00:14:33.543Z,84
2017-01-26T00:15:33.941Z,84
2017-01-26T00:16:34.749Z,84
2017-01-26T00:17:36.072Z,84
2017-01-26T00:18:36.877Z,84
2017-01-26T00:19:37.260Z,84
2017-01-26T00:20:37.641Z,84
2017-01-26T00:21:38.863Z,84
2017-01-26T00:22:39.674Z,84
2017-01-26T00:23:40.483Z,84
2017-01-26T00:24:41.317Z,78
2017-01-26T00:25:42.122Z,78
2017-01-26T00:26:42.926Z,78
2017-01-26T00:27:43.734Z,78
2017-01-26T00:28:44.522Z,78
2017-01-26T00:29:44.900Z,78
2017-01-26T00:30:45.708Z,78
2017-01-26T00:31:46.519Z,78
2017-01-26T00:32:46.896Z,78
2017-01-26T00:33:47.270Z,78
2017-01-26T00:34:47.686Z,91
2017-01-26T00:35:48.077Z,91
2017-01-26T00:36:48.869Z,91
2017-01-26T00:37:49.664Z,91
2017-01-26T00:38:50.471Z,91
2017-01-26T00:39:51.695Z,91
2017-01-26T00:40:52.073Z,91
2017-01-26T00:41:52.456Z,91
2017-01-26T00:42:53.266Z,91
2017-01-26T00:43:54.101Z,82
2017-01-26T00:44:54.914Z,82
2017-01-26T00:45:55.790Z,82
2017-01-26T00:46:56.582Z,82
2017-01-26T00:47:57.801Z,82
2017-01-26T00:48:58.612Z,82
2017-01-26T00:49:59.424Z,82
2017-01-26T00:51:00.646Z,82
2017-01-26T00:52:01.439Z,82
2017-01-26T00:53:02.263Z,82
2017-01-26T00:54:02.686Z,81
2017-01-26T00:55:03.505Z,81
2017-01-26T00:56:03.889Z,81
2017-01-26T00:57:04.261Z,81
2017-01-26T00:58:04.647Z,81
2017-01-26T00:59:05.443Z,81
2017-01-26T01:00:06.250Z,81
2017-01-26T01:01:06.621Z,81
2017-01-26T01:02:06.998Z,81
2017-01-26T01:03:07.565Z,86
2017-01-26T01:04:08.364Z,86
2017-01-26T01:05:09.169Z,86
2017-01-26T01:06:09.989Z,86
2017-01-26T01:07:10.359Z,86
2017-01-26T01:08:10.734Z,86
2017-01-26T01:09:11.111Z,86
2017-01-26T01:10:11.921Z,86
2017-01-26T01:11:12.300Z,86
2017-01-26T01:12:13.114Z,86
2017-01-26T01:13:13.953Z,79
2017-01-26T01:14:15.183Z,79
2017-01-26T01:15:15.555Z,79
2017-01-26T01:16:16.346Z,79
2017-01-26T01:17:17.570Z,79
2017-01-26T01:18:18.791Z,79
2017-01-26T01:19:20.051Z,79
2017-01-26T01:20:21.272Z,79
2017-01-26T01:21:22.065Z,79
2017-01-26T01:22:23.293Z,79
2017-01-26T01:23:24.524Z,79
2017-01-26T01:24:25.343Z,79
2017-01-26T01:25:26.156Z,79
2017-01-26T01:26:26.959Z,79
2017-01-26T01:27:28.239Z,79
2017-01-26T01:28:28.625Z,79
2017-01-26T01:29:29.430Z,79
2017-01-26T01:30:30.231Z,79
2017-01-26T01:31:31.038Z,79
2017-01-26T01:32:31.456Z,83
2017-01-26T01:33:32.830Z,83
2017-01-26T01:34:33.202Z,83
2017-01-26T01:35:34.013Z,83
2017-01-26T01:36:34.398Z,83
2017-01-26T01:37:35.201Z,83
2017-01-26T01:38:35.991Z,83
2017-01-26T01:39:36.366Z,83
2017-01-26T01:40:36.780Z,83
2017-01-26T01:41:37.161Z,83
2017-01-26T01:42:37.542Z,83
2017-01-26T01:43:38.364Z,83
2017-01-26T01:44:39.170Z,83
2017-01-26T01:45:39.957Z,83
2017-01-26T01:46:40.350Z,83
2017-01-26T01:47:40.726Z,83
2017-01-26T01:48:41.120Z,83
2017-01-26T01:49:42.338Z,83
2017-01-26T01:50:43.168Z,83
2017-01-26T01:51:44.005Z,89
2017-01-26T01:52:45.236Z,89
2017-01-26T01:53:46.021Z,89
2017-01-26T01:54:46.826Z,89
2017-01-26T01:55:48.080Z,89
2017-01-26T01:56:49.320Z,89
2017-01-26T01:57:50.330Z,89
2017-01-26T01:58:50.704Z,89
2017-01-26T01:59:51.937Z,89
2017-01-26T02:00:53.175Z,89
2017-01-26T02:01:54.399Z,89
2017-01-26T02:02:55.622Z,89
2017-01-26T02:03:55.997Z,89
2017-01-26T02:04:56.805Z,89
2017-01-26T02:05:57.617Z,89
2017-01-26T02:06:57.999Z,89
2017-01-26T02:07:58.390Z,89
2017-01-26T02:08:59.196Z,89
2017-01-26T02:10:00.422Z,89
2017-01-26T02:11:00.831Z,71
2017-01-26T02:12:01.219Z,71
2017-01-26T02:13:02.023Z,71
2017-01-26T02:14:02.397Z,71
2017-01-26T02:15:02.792Z,71
2017-01-26T02:16:03.171Z,71
2017-01-26T02:17:03.960Z,71
2017-01-26T02:18:05.182Z,71
2017-01-26T02:19:05.993Z,71
2017-01-26T02:20:06.820Z,71
2017-01-26T02:21:07.614Z,71
2017-01-26T02:22:08.409Z,71
2017-01-26T02:23:08.780Z,71
2017-01-26T02:24:09.590Z,71
2017-01-26T02:25:10.398Z,71
2017-01-26T02:26:11.187Z,71
2017-01-26T02:27:12.002Z,71
2017-01-26T02:28:12.795Z,71
2017-01-26T02:29:14.019Z,71
2017-01-26T02:30:14.857Z,88
2017-01-26T02:31:15.254Z,88
2017-01-26T02:32:16.128Z,88
2017-01-26T02:33:16.944Z,88
2017-01-26T02:34:18.170Z,88
2017-01-26T02:35:18.975Z,88
2017-01-26T02:36:19.348Z,88
2017-01-26T02:37:19.735Z,88
2017-01-26T02:38:20.546Z,88
2017-01-26T02:39:20.923Z,88
2017-01-26T02:40:22.146Z,88
2017-01-26T02:41:22.526Z,88
2017-01-26T02:42:23.759Z,88
2017-01-26T02:43:24.988Z,88
2017-01-26T02:44:26.295Z,88
2017-01-26T02:45:26.681Z,88
2017-01-26T02:46:27.070Z,88
2017-01-26T02:47:27.863Z,88
2017-01-26T02:48:28.729Z,88
2017-01-26T02:49:29.985Z,87
2017-01-26T02:50:30.366Z,87
2017-01-26T02:51:30.745Z,87
2017-01-26T02:52:31.119Z,87
2017-01-26T02:53:31.926Z,87
2017-01-26T02:54:32.299Z,87
2017-01-26T02:55:33.522Z,87
2017-01-26T02:56:33.899Z,87
2017-01-26T02:57:34.290Z,87
2017-01-26T02:58:34.666Z,87
2017-01-26T02:59:35.897Z,87
2017-01-26T03:00:36.698Z,87
2017-01-26T03:01:37.492Z,87
2017-01-26T03:02:37.874Z,87
2017-01-26T03:03:38.299Z,87
2017-01-26T03:04:39.108Z,87
2017-01-26T03:05:39.925Z,87
2017-01-26T03:06:40.298Z,87
2017-01-26T03:07:41.102Z,87
2017-01-26T03:08:42.369Z,77
2017-01-26T03:09:43.593Z,77
2017-01-26T03:10:44.383Z,77
2017-01-26T03:11:45.610Z,77
2017-01-26T03:12:45.994Z,77
2017-01-26T03:13:46.788Z,77
2017-01-26T03:14:47.159Z,77
2017-01-26T03:15:47.534Z,77
2017-01-26T03:16:48.759Z,77
2017-01-26T03:17:49.984Z,77
2017-01-26T03:18:50.782Z,77
2017-01-26T03:19:51.165Z,77
2017-01-26T03:20:52.511Z,77
2017-01-26T03:21:53.930Z,77
2017-01-26T03:22:54.743Z,77
2017-01-26T03:23:55.534Z,77
2017-01-26T03:24:56.339Z,77
2017-01-26T03:25:57.141Z,77
2017-01-26T03:26:57.948Z,77
2017-01-26T03:27:58.782Z,78
2017-01-26T03:28:59.196Z,78
2017-01-26T03:29:59.565Z,78
2017-01-26T03:31:00.373Z,78
2017-01-26T03:32:01.598Z,78
2017-01-26T03:33:02.410Z,78
2017-01-26T03:34:02.789Z,78
2017-01-26T03:35:04.017Z,78
2017-01-26T03:36:04.403Z,78
2017-01-26T03:37:04.781Z,78
2017-01-26T03:38:06.009Z,78
2017-01-26T03:39:06.381Z,78
2017-01-26T03:40:06.760Z,78
2017-01-26T03:41:07.557Z,78
2017-01-26T03:42:08.372Z,78
2017-01-26T03:43:09.159Z,78
2017-01-26T03:44:09.967Z,78
2017-01-26T03:45:10.346Z,78
2017-01-26T03:46:10.725Z,78
2017-01-26T03:47:11.141Z,85
2017-01-26T03:48:11.960Z,85
2017-01-26T03:49:12.768Z,85
2017-01-26T03:50:13.997Z,85
2017-01-26T03:51:14.806Z,85
2017-01-26T03:52:15.614Z,85
2017-01-26T03:53:16.403Z,85
2017-01-26T03:54:17.214Z,85
2017-01-26T03:55:18.029Z,85
2017-01-26T03:56:18.826Z,85
2017-01-26T03:57:19.630Z,85
2017-01-26T03:58:20.003Z,85
2017-01-26T03:59:21.227Z,85
2017-01-26T04:00:21.598Z,85
2017-01-26T04:01:22.405Z,85
2017-01-26T04:02:23.212Z,85
2017-01-26T04:03:24.028Z,85
2017-01-26T04:04:25.257Z,85
2017-01-26T04:05:26.488Z,85
2017-01-26T04:06:27.720Z,85
2017-01-26T04:07:28.523Z,85
2017-01-26T04:08:29.334Z,85
2017-01-26T04:09:30.570Z,85
2017-01-26T04:10:30.940Z,85
2017-01-26T04:11:31.731Z,85
2017-01-26T04:12:32.145Z,85
2017-01-26T04:13:32.523Z,85
2017-01-26T04:14:33.329Z,85
2017-01-26T04:15:33.701Z,85
2017-01-26T04:16:34.509Z,85
2017-01-26T04:17:34.886Z,85
2017-01-26T04:18:35.261Z,85
2017-01-26T04:19:35.651Z,85
2017-01-26T04:20:37.025Z,85
2017-01-26T04:21:37.828Z,85
2017-01-26T04:22:38.205Z,85
2017-01-26T04:23:39.015Z,85
2017-01-26T04:24:39.397Z,85
2017-01-26T04:25:40.624Z,85
2017-01-26T04:26:40.998Z,85
2017-01-26T04:27:41.808Z,85
2017-01-26T04:28:42.182Z,85
2017-01-26T04:29:42.990Z,85
2017-01-26T04:30:43.368Z,85
2017-01-26T04:31:43.763Z,85
2017-01-26T04:32:44.142Z,85
2017-01-26T04:33:44.524Z,85
2017-01-26T04:34:44.906Z,85
2017-01-26T04:35:45.701Z,85
2017-01-26T04:36:46.079Z,85
2017-01-26T04:37:46.879Z,85
2017-01-26T04:38:47.258Z,85
2017-01-26T04:39:48.049Z,85
2017-01-26T04:40:48.860Z,85
2017-01-26T04:41:49.655Z,85
2017-01-26T04:42:50.035Z,85
2017-01-26T04:43:50.413Z,85
2017-01-26T04:44:51.219Z,85
2017-01-26T04:45:52.027Z,85
2017-01-26T04:46:52.438Z,85
2017-01-26T04:47:52.805Z,85
2017-01-26T04:48:53.189Z,85
2017-01-26T04:49:54.431Z,85
2017-01-26T04:50:55.110Z,85
2017-01-26T04:51:55.497Z,85
2017-01-26T04:52:56.296Z,85
2017-01-26T04:53:57.091Z,85
2017-01-26T04:54:57.927Z,85
2017-01-26T04:55:58.743Z,85
2017-01-26T04:56:59.531Z,85
2017-01-26T04:58:00.007Z,85
2017-01-26T04:59:00.391Z,85
2017-01-26T05:00:01.197Z,85
2017-01-26T05:01:01.988Z,85
2017-01-26T05:02:03.219Z,85
2017-01-26T05:03:04.031Z,85
2017-01-26T05:04:04.846Z,85
2017-01-26T05:05:05.638Z,85
2017-01-26T05:06:06.013Z,85
2017-01-26T05:07:06.820Z,85
2017-01-26T05:08:07.193Z,85
2017-01-26T05:09:08.009Z,85
2017-01-26T05:10:08.388Z,85
2017-01-26T05:11:08.762Z,85
2017-01-26T05:12:09.135Z,85
2017-01-26T05:13:09.518Z,85
2017-01-26T05:14:10.334Z,85
2017-01-26T05:15:11.558Z,85
2017-01-26T05:16:11.944Z,85
2017-01-26T05:17:12.321Z,85
2017-01-26T05:18:13.129Z,85
2017-01-26T05:19:13.504Z,85
2017-01-26T05:20:14.313Z,85
2017-01-26T05:21:15.204Z,85
2017-01-26T05:22:15.581Z,85
2017-01-26T05:23:15.957Z,85
2017-01-26T05:24:16.754Z,85
2017-01-26T05:25:17.127Z,85
2017-01-26T05:26:18.360Z,85
2017-01-26T05:27:18.757Z,85
2017-01-26T05:28:19.557Z,85
2017-01-26T05:29:20.368Z,85
2017-01-26T05:30:21.602Z,85
2017-01-26T05:31:21.979Z,85
2017-01-26T05:32:23.211Z,85
2017-01-26T05:33:24.565Z,85
2017-01-26T05:34:25.355Z,85
2017-01-26T05:35:26.150Z,85
2017-01-26T05:36:26.962Z,85
2017-01-26T05:37:27.348Z,85
2017-01-26T05:38:27.723Z,85
2017-01-26T05:39:28.097Z,85
2017-01-26T05:40:28.898Z,85
2017-01-26T05:41:29.272Z,85
2017-01-26T05:42:30.504Z,85
2017-01-26T05:43:30.883Z,85
2017-01-26T05:44:31.696Z,85
2017-01-26T05:45:32.632Z,85
2017-01-26T05:46:33.453Z,85
2017-01-26T05:47:34.389Z,85
2017-01-26T05:48:35.247Z,85
2017-01-26T05:49:36.474Z,85
2017-01-26T05:50:37.699Z,85
2017-01-26T05:51:38.075Z,85
2017-01-26T05:52:38.879Z,85
2017-01-26T05:53:39.692Z,85
2017-01-26T05:54:40.075Z,85
2017-01-26T05:55:41.298Z,85
2017-01-26T05:56:42.102Z,85
2017-01-26T05:57:42.908Z,85
2017-01-26T05:58:43.704Z,85
2017-01-26T05:59:44.932Z,85
2017-01-26T06:00:45.724Z,85
2017-01-26T06:01:46.530Z,85
2017-01-26T06:02:47.331Z,85
2017-01-26T06:03:48.126Z,85
2017-01-26T06:04:48.503Z,85
2017-01-26T06:05:49.310Z,85
2017-01-26T06:06:49.682Z,85
2017-01-26T06:07:50.471Z,85
2017-01-26T06:08:50.849Z,85
2017-01-26T06:09:51.661Z,85
2017-01-26T06:10:52.039Z,85
2017-01-26T06:11:52.833Z,85
2017-01-26T06:12:53.647Z,85
2017-01-26T06:13:54.023Z,85
2017-01-26T06:14:54.817Z,85
2017-01-26T06:15:55.624Z,85
2017-01-26T06:16:56.856Z,85
2017-01-26T06:17:58.076Z,85
2017-01-26T06:18:58.450Z,85
2017-01-26T06:19:59.246Z,85
2017-01-26T06:21:00.041Z,85
2017-01-26T06:22:01.273Z,85
2017-01-26T06:23:02.501Z,85
2017-01-26T06:24:03.309Z,85
2017-01-26T06:25:04.665Z,85
2017-01-26T06:26:05.470Z,85
2017-01-26T06:27:06.260Z,85
2017-01-26T06:28:06.637Z,85
2017-01-26T06:29:07.447Z,85
2017-01-26T06:30:08.257Z,85
2017-01-26T06:31:09.220Z,85
2017-01-26T06:32:10.003Z,85
2017-01-26T06:33:10.802Z,85
2017-01-26T06:34:11.198Z,85
2017-01-26T06:35:11.574Z,85
2017-01-26T06:36:12.384Z,85
2017-01-26T06:37:12.758Z,85
2017-01-26T06:38:13.140Z,85
2017-01-26T06:39:13.932Z,85
2017-01-26T06:40:14.727Z,85
2017-01-26T06:41:15.533Z,85
2017-01-26T06:42:16.327Z,85
2017-01-26T06:43:17.132Z,85
2017-01-26T06:44:17.968Z,85
2017-01-26T06:45:18.363Z,85
2017-01-26T06:46:19.169Z,85
2017-01-26T06:47:19.544Z,85
2017-01-26T06:48:20.766Z,85
2017-01-26T06:49:21.724Z,85
2017-01-26T06:50:22.182Z,85
2017-01-26T06:51:22.983Z,85
2017-01-26T06:52:23.796Z,85
2017-01-26T06:53:24.632Z,85
2017-01-26T06:54:25.856Z,85
2017-01-26T06:55:27.099Z,85
2017-01-26T06:56:27.476Z,85
2017-01-26T06:57:28.276Z,85
2017-01-26T06:58:29.503Z,85
2017-01-26T06:59:30.317Z,85
2017-01-26T07:00:31.131Z,85
2017-01-26T07:01:31.508Z,85
2017-01-26T07:02:32.310Z,85
2017-01-26T07:03:33.114Z,85
2017-01-26T07:04:33.513Z,85
2017-01-26T07:05:33.879Z,85
2017-01-26T07:06:34.298Z,85
2017-01-26T07:07:35.739Z,85
2017-01-26T07:08:36.535Z,85
2017-01-26T07:09:37.770Z,85
2017-01-26T07:10:38.635Z,85
2017-01-26T07:11:39.452Z,85
2017-01-26T07:12:40.262Z,85
2017-01-26T07:13:40.652Z,85
2017-01-26T07:14:41.026Z,85
2017-01-26T07:15:41.822Z,85
2017-01-26T07:16:42.627Z,85
2017-01-26T07:17:43.432Z,85
2017-01-26T07:18:43.835Z,85
2017-01-26T07:19:44.235Z,85
2017-01-26T07:20:45.061Z,85
2017-01-26T07:21:45.483Z,85
2017-01-26T07:22:46.297Z,85
2017-01-26T07:23:46.678Z,85
2017-01-26T07:24:47.059Z,85
2017-01-26T07:25:47.434Z,85
2017-01-26T07:26:48.778Z,85
2017-01-26T07:27:49.177Z,85
2017-01-26T07:28:50.000Z,85
2017-01-26T07:29:50.796Z,85
2017-01-26T07:30:51.687Z,85
2017-01-26T07:31:52.059Z,85
2017-01-26T07:32:53.297Z,85
2017-01-26T07:33:54.110Z,85
2017-01-26T07:34:54.917Z,85
2017-01-26T07:35:55.294Z,85
2017-01-26T07:36:56.517Z,85
2017-01-26T07:37:57.333Z,85
2017-01-26T07:38:58.583Z,85
2017-01-26T07:39:59.390Z,85
2017-01-26T07:41:00.671Z,85
2017-01-26T07:42:01.052Z,85
2017-01-26T07:43:01.426Z,85
2017-01-26T07:44:02.217Z,85
2017-01-26T07:45:03.474Z,85
2017-01-26T07:46:03.930Z,85
2017-01-26T07:47:04.321Z,85
2017-01-26T07:48:04.696Z,85
2017-01-26T07:49:05.104Z,85
2017-01-26T07:50:05.899Z,85
2017-01-26T07:51:06.695Z,85
2017-01-26T07:52:07.919Z,85
2017-01-26T07:53:09.436Z,85
2017-01-26T07:54:10.232Z,85
2017-01-26T07:55:10.637Z,85
2017-01-26T07:56:11.026Z,85
2017-01-26T07:57:11.833Z,85
2017-01-26T07:58:12.214Z,85
2017-01-26T07:59:13.014Z,85
2017-01-26T08:00:13.407Z,85
2017-01-26T08:01:13.780Z,85
2017-01-26T08:02:15.012Z,85
2017-01-26T08:03:15.808Z,85
2017-01-26T08:04:16.225Z,85
2017-01-26T08:05:16.605Z,85
2017-01-26T08:06:17.439Z,85
2017-01-26T08:07:18.285Z,85
2017-01-26T08:08:19.497Z,85
2017-01-26T08:09:20.775Z,85
2017-01-26T08:10:21.270Z,85
2017-01-26T08:11:22.077Z,85
2017-01-26T08:12:22.473Z,85
2017-01-26T08:13:22.859Z,85
2017-01-26T08:14:23.673Z,85
2017-01-26T08:15:24.048Z,85
2017-01-26T08:16:25.003Z,85
2017-01-26T08:17:25.390Z,85
2017-01-26T08:18:26.602Z,85
2017-01-26T08:19:27.853Z,85
2017-01-26T08:20:28.674Z,85
2017-01-26T08:21:29.906Z,85
2017-01-26T08:22:30.716Z,85
2017-01-26T08:23:31.110Z,85
2017-01-26T08:24:31.912Z,85
2017-01-26T08:25:32.724Z,85
2017-01-26T08:26:33.535Z,85
2017-01-26T08:27:34.347Z,85
2017-01-26T08:28:34.981Z,85
2017-01-26T08:29:35.352Z,85
2017-01-26T08:30:36.584Z,85
2017-01-26T08:31:37.387Z,85
2017-01-26T08:32:37.762Z,85
2017-01-26T08:33:38.817Z,85
2017-01-26T08:42:12.464Z,7
2017-01-26T08:43:13.302Z,7
2017-01-26T08:44:14.135Z,7
2017-01-26T08:49:36.981Z,8
2017-01-26T08:58:40.515Z,9
2017-01-26T08:59:40.949Z,9
2017-01-26T09:00:42.211Z,9
2017-01-26T09:01:43.486Z,9
2017-01-26T09:02:44.518Z,9
2017-01-26T09:03:44.977Z,9
2017-01-26T09:04:45.821Z,9
2017-01-26T09:05:46.642Z,9
2017-01-26T09:06:47.473Z,9
2017-01-26T09:07:47.861Z,9
2017-01-26T09:08:48.682Z,9
2017-01-26T09:09:49.532Z,12
2017-01-26T09:10:50.372Z,13
2017-01-26T09:11:51.269Z,10
2017-01-26T09:12:52.560Z,11
2017-01-26T09:13:54.088Z,10
2017-01-26T09:14:55.356Z,14
2017-01-26T09:15:56.598Z,14
2017-01-26T09:16:56.993Z,14
2017-01-26T09:17:57.390Z,14
2017-01-26T09:18:57.783Z,14
2017-01-26T09:19:59.092Z,9
2017-01-26T09:21:00.355Z,10
2017-01-26T09:22:01.206Z,8
2017-01-26T09:23:02.471Z,11
2017-01-26T09:24:03.340Z,11
2017-01-26T09:25:03.731Z,11
2017-01-26T09:26:05.027Z,11
2017-01-26T09:27:05.411Z,11
2017-01-26T09:28:06.214Z,11
2017-01-26T09:29:07.374Z,11
2017-01-26T09:30:08.199Z,11
2017-01-26T09:31:08.678Z,11
2017-01-26T09:32:09.538Z,11
2017-01-26T09:33:09.924Z,11
2017-01-26T09:34:10.753Z,11
2017-01-26T09:35:11.584Z,11
2017-01-26T09:36:12.442Z,11
2017-01-26T09:37:13.669Z,11
2017-01-26T09:38:14.083Z,11
2017-01-26T09:39:14.492Z,11
2017-01-26T09:40:14.880Z,11
2017-01-26T09:41:16.125Z,11
2017-01-26T09:42:16.523Z,11
2017-01-26T09:43:17.770Z,11
2017-01-26T09:44:19.012Z,11
2017-01-26T09:45:19.412Z,11
2017-01-26T09:46:20.227Z,11
2017-01-26T09:47:21.058Z,11
2017-01-26T09:48:21.871Z,11
2017-01-26T09:49:22.676Z,11
2017-01-26T09:50:23.547Z,11
2017-01-26T09:51:24.373Z,11
2017-01-26T09:52:24.764Z,11
2017-01-26T09:53:25.181Z,11
2017-01-26T09:54:25.996Z,11
2017-01-26T09:55:26.821Z,11
2017-01-26T09:56:27.664Z,11
2017-01-26T09:57:28.486Z,11
2017-01-26T09:58:29.314Z,11
2017-01-26T09:59:29.707Z,11
2017-01-26T10:00:30.517Z,11
2017-01-26T10:01:30.910Z,11
2017-01-26T10:02:31.749Z,11
2017-01-26T10:03:32.992Z,11
2017-01-26T10:04:34.248Z,11
2017-01-26T10:05:35.104Z,11
2017-01-26T10:06:36.364Z,11
2017-01-26T10:07:37.192Z,11
2017-01-26T10:08:38.476Z,11
2017-01-26T10:09:39.291Z,11
2017-01-26T10:10:40.110Z,11
2017-01-26T10:11:40.933Z,11
2017-01-26T10:12:41.744Z,11
2017-01-26T10:13:42.551Z,11
2017-01-26T10:14:42.978Z,11
2017-01-26T10:16:35.297Z,9
2017-01-26T10:19:03.895Z,0
2017-01-26T10:20:04.283Z,0
2017-01-26T10:21:05.526Z,0
2017-01-26T10:22:05.921Z,0
2017-01-26T10:23:07.233Z,0
2017-01-26T10:24:08.061Z,0
2017-01-26T10:25:41.748Z,7
2017-01-26T10:26:42.595Z,7
2017-01-26T10:27:43.469Z,6
2017-01-26T10:28:44.348Z,6
2017-01-26T10:29:44.784Z,6
